Time;durP1;ratioP1;P1;durP2;ratioP2;P2;SDS_P1;SDS_P2;PMS_P1;PMS_P2;Temp;Humidity;BMP_temperature;BMP_pressure;BME280_temperature;BME280_humidity;BME280_pressure;Samples;Min_cycle;Max_cycle;Signal;HPM_P1;HPM_P2
2023/10/14 00:02:15;;;;;;;3.60;3.30;;;;;;;22.73;34.26;97254.53;5096340;28;20555;-76
2023/10/14 00:04:42;;;;;;;4.17;3.33;;;;;;;22.53;34.69;97260.31;5097763;28;20449;-76
2023/10/14 00:07:10;;;;;;;5.60;3.23;;;;;;;22.57;34.72;97242.06;5098035;28;20492;-76
2023/10/14 00:09:43;;;;;;;4.47;3.53;;;;;;;22.37;35.83;97239.63;5103120;28;20490;-75
2023/10/14 00:12:13;;;;;;;5.40;3.40;;;;;;;22.39;37.00;97251.16;5092846;28;20450;-76
2023/10/14 00:14:42;;;;;;;4.10;3.70;;;;;;;22.32;37.44;97239.69;5095712;28;20518;-75
2023/10/14 00:17:16;;;;;;;5.10;3.70;;;;;;;22.43;38.96;97252.19;5104736;28;20809;-75
2023/10/14 00:19:45;;;;;;;4.37;3.97;;;;;;;22.27;39.24;97245.25;5103122;28;20649;-76
2023/10/14 00:22:12;;;;;;;5.27;4.00;;;;;;;22.26;39.26;97249.13;5101396;28;20484;-76
2023/10/14 00:24:39;;;;;;;4.97;3.80;;;;;;;22.16;39.48;97243.75;5103511;28;20454;-76
2023/10/14 00:27:08;;;;;;;5.17;4.13;;;;;;;22.22;39.57;97235.13;5102457;28;20929;-75
2023/10/14 00:29:35;;;;;;;4.43;4.10;;;;;;;22.21;39.77;97249.19;5107064;28;20465;-75
2023/10/14 00:32:03;;;;;;;6.20;3.97;;;;;;;22.15;41.19;97245.69;5102789;28;20493;-76
2023/10/14 00:34:31;;;;;;;4.80;4.30;;;;;;;21.96;43.11;97242.88;5103722;28;20460;-75
2023/10/14 00:36:58;;;;;;;9.80;5.03;;;;;;;21.95;44.47;97238.50;5103982;28;20475;-76
2023/10/14 00:39:27;;;;;;;6.60;4.70;;;;;;;21.90;44.70;97244.06;5104575;28;20495;-75
2023/10/14 00:41:55;;;;;;;4.90;4.40;;;;;;;21.87;44.89;97230.03;5103853;28;20479;-75
2023/10/14 00:44:24;;;;;;;4.63;4.13;;;;;;;22.02;43.79;97225.22;5104610;28;20526;-76
2023/10/14 00:46:51;;;;;;;5.30;4.43;;;;;;;21.97;43.38;97225.25;5106094;28;20544;-76
2023/10/14 00:49:21;;;;;;;4.90;4.60;;;;;;;22.01;43.56;97222.75;5095005;28;20476;-76
2023/10/14 00:51:52;;;;;;;5.07;4.20;;;;;;;21.79;43.17;97206.72;5106288;28;20521;-75
2023/10/14 00:54:26;;;;;;;5.37;4.40;;;;;;;21.82;44.04;97211.63;5104298;28;20593;-76
2023/10/14 00:57:00;;;;;;;6.00;4.70;;;;;;;21.80;44.07;97211.13;5106545;28;20457;-76
2023/10/14 00:59:28;;;;;;;4.63;4.23;;;;;;;21.71;44.71;97208.22;5110111;28;20593;-75
2023/10/14 01:01:58;;;;;;;5.20;4.70;;;;;;;21.67;45.01;97204.41;5112720;28;20455;-76
2023/10/14 01:04:32;;;;;;;7.90;5.30;;;;;;;21.76;45.28;97207.34;5105539;28;20889;-75
2023/10/14 01:07:04;;;;;;;5.67;4.40;;;;;;;21.77;45.49;97211.69;5102810;28;20486;-76
2023/10/14 01:09:43;;;;;;;5.13;4.73;;;;;;;21.72;45.83;97214.53;5092950;28;20468;-75
2023/10/14 01:12:21;;;;;;;6.60;5.20;;;;;;;21.75;46.20;97211.19;5104687;28;21058;-75
2023/10/14 01:14:52;;;;;;;8.03;4.77;;;;;;;21.77;46.18;97206.19;5101923;28;20868;-75
2023/10/14 01:17:24;;;;;;;5.47;4.57;;;;;;;21.71;47.10;97201.88;5101418;28;20467;-75
2023/10/14 01:19:51;;;;;;;5.67;5.17;;;;;;;21.64;47.30;97198.66;5103448;28;20504;-76
2023/10/14 01:22:20;;;;;;;5.63;5.17;;;;;;;21.54;47.80;97202.34;5100089;28;20473;-76
2023/10/14 01:24:47;;;;;;;5.53;4.87;;;;;;;21.46;48.49;97212.06;5100518;28;20539;-76
2023/10/14 01:27:16;;;;;;;5.57;5.03;;;;;;;21.40;48.81;97204.19;5100349;28;20535;-76
2023/10/14 01:29:44;;;;;;;5.83;5.17;;;;;;;21.36;49.38;97203.94;5104584;28;20477;-76
2023/10/14 01:32:43;;;;;;;7.33;5.37;;;;;;;21.18;50.84;97207.38;5104357;28;20514;-76
2023/10/14 01:35:24;;;;;;;6.00;5.50;;;;;;;20.98;51.66;97200.16;5083082;28;20452;-75
2023/10/14 01:37:53;;;;;;;6.23;5.40;;;;;;;20.96;52.30;97220.81;5097393;28;20464;-75
2023/10/14 01:40:27;;;;;;;7.27;5.50;;;;;;;20.85;52.59;97222.00;5098287;28;20817;-76
2023/10/14 01:42:57;;;;;;;5.93;5.37;;;;;;;20.72;53.27;97210.56;5104472;28;20510;-75
2023/10/14 01:45:28;;;;;;;6.37;5.77;;;;;;;20.74;53.74;97213.03;5107519;28;20475;-75
2023/10/14 01:48:11;;;;;;;7.40;6.20;;;;;;;20.62;53.95;97218.91;5087273;28;20457;-75
2023/10/14 01:50:38;;;;;;;7.20;6.50;;;;;;;20.51;54.38;97189.00;5105509;28;20559;-75
2023/10/14 01:53:10;;;;;;;9.93;6.73;;;;;;;20.59;54.74;97202.97;5107899;28;21150;-75
2023/10/14 01:55:41;;;;;;;6.53;5.93;;;;;;;20.50;54.85;97212.09;5106710;28;20452;-75
2023/10/14 01:58:10;;;;;;;6.77;6.03;;;;;;;20.44;55.23;97211.34;5104303;28;20925;-76
2023/10/14 02:00:39;;;;;;;6.93;6.33;;;;;;;20.47;55.07;97208.00;5100077;28;20482;-75
2023/10/14 02:03:07;;;;;;;7.60;6.17;;;;;;;20.38;55.96;97210.56;5104921;28;20505;-75
2023/10/14 02:05:40;;;;;;;6.87;5.27;;;;;;;20.38;55.97;97207.00;5100518;28;20452;-76
2023/10/14 02:08:14;;;;;;;7.90;6.53;;;;;;;20.26;56.32;97196.31;5099895;28;20931;-76
2023/10/14 02:10:46;;;;;;;7.10;6.50;;;;;;;20.21;56.68;97190.03;5096861;28;20479;-75
2023/10/14 02:13:15;;;;;;;6.80;6.07;;;;;;;20.10;57.37;97181.88;5107254;28;20942;-75
2023/10/14 02:15:46;;;;;;;6.93;6.00;;;;;;;20.20;57.21;97188.38;5105221;28;20936;-76
2023/10/14 02:18:16;;;;;;;6.20;5.70;;;;;;;20.06;57.76;97189.03;5098673;28;20460;-76
2023/10/14 02:20:57;;;;;;;7.33;5.87;;;;;;;20.09;58.02;97177.47;5106467;28;20472;-75
2023/10/14 02:23:29;;;;;;;6.07;5.50;;;;;;;19.96;58.62;97189.06;5103909;28;20990;-75
2023/10/14 02:26:00;;;;;;;6.07;5.47;;;;;;;19.92;58.68;97187.16;5101545;28;20459;-75
2023/10/14 02:28:39;;;;;;;7.97;6.80;;;;;;;19.97;58.57;97187.97;5098001;28;20456;-76
2023/10/14 02:31:16;;;;;;;6.60;5.70;;;;;;;19.93;58.66;97178.66;5098634;28;20486;-76
2023/10/14 02:33:45;;;;;;;7.50;6.77;;;;;;;19.94;58.93;97163.81;5107576;28;20468;-76
2023/10/14 02:36:17;;;;;;;6.33;5.73;;;;;;;19.98;59.00;97170.38;5096993;28;20972;-76
2023/10/14 02:38:52;;;;;;;7.30;6.17;;;;;;;19.93;59.28;97167.66;5100557;28;20476;-76
2023/10/14 02:41:19;;;;;;;7.50;6.20;;;;;;;19.98;59.08;97162.16;5102559;28;20468;-76
2023/10/14 02:43:48;;;;;;;5.30;4.80;;;;;;;19.95;59.16;97159.97;5102108;28;20999;-76
2023/10/14 02:46:20;;;;;;;6.43;5.93;;;;;;;19.95;58.97;97139.91;5097173;28;20546;-76
2023/10/14 02:49:02;;;;;;;6.70;6.10;;;;;;;19.90;59.47;97142.69;5099061;28;20474;-75
2023/10/14 02:51:35;;;;;;;7.73;7.00;;;;;;;19.85;59.19;97149.03;5100855;28;20906;-76
2023/10/14 02:54:13;;;;;;;6.97;6.00;;;;;;;19.96;59.30;97150.63;5102978;28;20497;-75
2023/10/14 02:56:55;;;;;;;7.90;6.73;;;;;;;19.97;59.26;97163.25;5100782;28;20465;-77
2023/10/14 02:59:35;;;;;;;7.63;5.73;;;;;;;19.95;58.80;97157.22;5095817;28;20527;-77
2023/10/14 03:02:14;;;;;;;7.03;6.43;;;;;;;20.02;58.81;97149.47;5102673;28;20950;-77
2023/10/14 03:04:48;;;;;;;7.30;6.60;;;;;;;20.04;58.92;97169.25;5101153;28;20567;-77
2023/10/14 03:07:22;;;;;;;6.90;6.30;;;;;;;19.99;58.69;97163.78;5102249;28;20523;-77
2023/10/14 03:09:50;;;;;;;6.57;5.93;;;;;;;19.86;58.99;97139.69;5098843;28;20618;-77
2023/10/14 03:12:19;;;;;;;6.97;5.73;;;;;;;20.12;58.62;97171.41;5105552;28;20492;-75
2023/10/14 03:14:48;;;;;;;6.50;5.90;;;;;;;20.02;58.80;97156.91;5097989;28;21035;-77
2023/10/14 03:17:23;;;;;;;7.00;6.30;;;;;;;20.12;58.79;97145.88;5098868;28;20539;-77
2023/10/14 03:19:53;;;;;;;7.73;6.93;;;;;;;20.13;58.48;97136.50;5099643;28;20470;-76
2023/10/14 03:22:23;;;;;;;7.27;6.50;;;;;;;20.05;58.65;97153.59;5102221;28;20450;-77
2023/10/14 03:24:51;;;;;;;7.00;6.40;;;;;;;20.03;58.92;97140.13;5102065;28;20857;-77
2023/10/14 03:27:19;;;;;;;7.17;6.27;;;;;;;20.00;58.82;97150.88;5092854;28;20448;-76
2023/10/14 03:29:58;;;;;;;6.97;5.80;;;;;;;20.10;58.71;97157.13;5093857;28;20484;-77
2023/10/14 03:32:32;;;;;;;7.00;6.30;;;;;;;20.04;59.03;97144.53;5097192;28;20451;-76
2023/10/14 03:35:03;;;;;;;7.00;6.30;;;;;;;20.12;58.73;97152.19;5101452;28;20957;-77
2023/10/14 03:37:35;;;;;;;7.27;6.47;;;;;;;20.20;58.22;97150.72;5097924;28;20459;-77
2023/10/14 03:42:54;;;;;;;6.97;6.27;;;;;;;20.07;58.43;97134.91;5098360;28;20474;-77
2023/10/14 03:45:24;;;;;;;7.40;6.63;;;;;;;20.22;58.42;97142.19;5108935;28;20468;-77
2023/10/14 03:47:59;;;;;;;8.90;6.33;;;;;;;20.22;58.17;97132.03;5107615;28;25074;-74
2023/10/14 03:50:26;;;;;;;7.73;6.40;;;;;;;20.20;57.67;97138.91;5102366;28;20474;-75
2023/10/14 03:52:53;;;;;;;7.47;6.67;;;;;;;20.21;58.17;97124.06;5105447;28;20452;-75
2023/10/14 03:55:25;;;;;;;7.20;5.83;;;;;;;20.24;58.01;97115.25;5104907;28;20484;-74
2023/10/14 03:57:58;;;;;;;7.10;6.27;;;;;;;20.22;58.15;97117.47;5107206;28;21300;-75
2023/10/14 04:00:36;;;;;;;6.93;6.33;;;;;;;20.18;58.43;97119.13;5103340;28;20467;-75
2023/10/14 04:03:11;;;;;;;6.53;5.90;;;;;;;20.23;57.84;97099.88;5109558;28;20933;-75
2023/10/14 04:05:41;;;;;;;8.40;6.20;;;;;;;20.18;58.01;97116.41;5116490;28;20462;-75
2023/10/14 04:08:08;;;;;;;6.13;5.63;;;;;;;20.20;58.26;97149.91;5103600;28;20486;-75
2023/10/14 04:10:43;;;;;;;6.67;5.97;;;;;;;20.19;58.38;97156.50;5098936;28;20451;-75
2023/10/14 04:13:13;;;;;;;6.50;6.00;;;;;;;20.23;59.70;97182.31;5104654;28;20481;-75
2023/10/14 04:15:47;;;;;;;8.00;7.20;;;;;;;19.86;64.90;97222.06;5106175;28;20478;-79
2023/10/14 04:18:15;;;;;;;7.40;6.57;;;;;;;19.10;69.83;97225.06;5107717;28;21003;-78
2023/10/14 04:20:46;;;;;;;10.30;5.00;;;;;;;18.29;73.05;97235.97;5104295;28;20458;-78
2023/10/14 04:23:26;;;;;;;6.77;5.07;;;;;;;17.71;76.77;97229.78;5109584;28;20575;-79
2023/10/14 04:26:03;;;;;;;7.87;4.60;;;;;;;17.41;78.19;97239.47;5109733;28;21018;-80
2023/10/14 04:28:39;;;;;;;6.53;4.60;;;;;;;17.14;79.85;97227.81;5106287;28;20467;-79
2023/10/14 04:31:08;;;;;;;4.80;4.30;;;;;;;16.65;82.87;97238.94;5104833;28;20975;-80
2023/10/14 04:33:44;;;;;;;5.07;4.20;;;;;;;16.55;84.30;97248.94;5102873;28;20949;-80
2023/10/14 04:39:12;;;;;;;5.67;5.17;;;;;;;16.15;87.20;97244.72;5100092;28;20468;-80
2023/10/14 04:41:55;;;;;;;5.83;4.47;;;;;;;16.05;88.43;97239.97;5099450;28;20475;-79
2023/10/14 04:44:26;;;;;;;7.00;4.87;;;;;;;16.07;89.21;97231.53;5105564;28;20477;-80
2023/10/14 04:47:01;;;;;;;4.83;4.40;;;;;;;16.05;88.88;97245.44;5101526;28;20540;-76
2023/10/14 04:49:37;;;;;;;5.53;3.93;;;;;;;16.11;88.03;97238.13;5098832;28;20473;-81
2023/10/14 04:52:06;;;;;;;5.53;4.30;;;;;;;16.07;88.84;97247.91;5095147;28;20459;-79
2023/10/14 04:54:35;;;;;;;5.00;4.10;;;;;;;16.02;89.35;97245.13;5098178;28;20811;-85
2023/10/14 04:57:20;;;;;;;4.50;4.10;;;;;;;16.00;89.15;97248.09;5104214;28;20464;-80
2023/10/14 04:59:53;;;;;;;5.70;4.13;;;;;;;16.00;89.47;97248.09;5104099;28;20476;-80
2023/10/14 05:02:21;;;;;;;4.87;4.47;;;;;;;16.01;89.30;97259.84;5102549;28;20454;-80
2023/10/14 05:04:50;;;;;;;5.17;4.30;;;;;;;16.11;88.52;97260.78;5102157;28;20476;-80
2023/10/14 05:07:18;;;;;;;5.70;4.43;;;;;;;16.15;89.19;97249.38;5101576;28;20532;-80
2023/10/14 05:09:56;;;;;;;5.23;4.40;;;;;;;16.22;87.68;97259.00;5096379;28;20517;-80
2023/10/14 05:12:25;;;;;;;5.40;4.40;;;;;;;16.41;86.51;97254.00;5098642;28;20464;-80
2023/10/14 05:14:55;;;;;;;6.20;4.47;;;;;;;16.60;86.79;97262.63;5101803;28;20483;-81
2023/10/14 05:17:25;;;;;;;4.90;4.40;;;;;;;16.65;86.33;97266.25;5099365;28;20630;-79
2023/10/14 05:19:57;;;;;;;5.47;5.07;;;;;;;16.68;86.02;97273.94;5092341;28;20992;-80
2023/10/14 05:22:31;;;;;;;5.40;4.47;;;;;;;16.66;84.64;97272.53;5097506;28;20457;-80
2023/10/14 05:25:15;;;;;;;5.27;4.57;;;;;;;16.62;83.81;97272.22;5101412;28;20493;-80
2023/10/14 05:27:55;;;;;;;5.37;4.87;;;;;;;16.66;82.97;97278.84;5098676;28;20480;-79
2023/10/14 05:30:22;;;;;;;4.60;4.20;;;;;;;16.75;82.20;97287.38;5106895;28;20452;-79
2023/10/14 05:32:51;;;;;;;5.00;4.50;;;;;;;16.67;81.87;97288.69;5106340;28;20495;-79
2023/10/14 05:35:21;;;;;;;4.80;4.40;;;;;;;16.88;81.27;97286.16;5108779;28;20551;-80
2023/10/14 05:37:50;;;;;;;5.00;4.30;;;;;;;16.82;80.76;97289.91;5089322;28;20576;-74
2023/10/14 05:40:17;;;;;;;5.63;4.97;;;;;;;16.86;80.09;97296.50;5100131;28;20876;-76
2023/10/14 05:42:45;;;;;;;6.27;4.37;;;;;;;16.88;78.87;97294.34;5102836;28;21023;-77
2023/10/14 05:45:14;;;;;;;7.20;4.57;;;;;;;16.90;78.40;97289.41;5092510;28;20972;-77
2023/10/14 05:47:42;;;;;;;4.87;4.20;;;;;;;16.78;78.76;97292.34;5097381;28;20847;-81
2023/10/14 05:50:14;;;;;;;6.37;4.43;;;;;;;16.76;78.46;97295.34;5100902;28;20470;-81
2023/10/14 05:52:44;;;;;;;5.47;4.97;;;;;;;16.78;79.05;97309.56;5100258;28;20501;-80
2023/10/14 05:55:11;;;;;;;6.53;4.63;;;;;;;16.74;78.67;97307.59;5098774;28;20562;-80
2023/10/14 05:57:41;;;;;;;6.10;4.00;;;;;;;16.63;78.00;97317.56;5099821;28;20926;-80
2023/10/14 06:00:21;;;;;;;4.37;3.57;;;;;;;16.67;77.93;97318.75;5104847;28;20602;-81
2023/10/14 06:02:51;;;;;;;5.00;3.90;;;;;;;16.73;77.80;97328.66;5103391;28;20458;-81
2023/10/14 06:05:20;;;;;;;7.27;3.63;;;;;;;16.84;76.80;97320.53;5106679;28;20480;-81
2023/10/14 06:07:47;;;;;;;4.47;3.77;;;;;;;16.81;77.03;97326.53;5098857;28;20535;-81
2023/10/14 06:10:20;;;;;;;4.57;3.20;;;;;;;16.90;77.20;97324.94;5106345;28;20449;-80
2023/10/14 06:12:50;;;;;;;6.20;3.53;;;;;;;16.92;75.26;97325.50;5095271;28;20453;-80
2023/10/14 06:15:19;;;;;;;3.50;2.87;;;;;;;16.93;75.32;97329.91;5099394;28;20542;-82
2023/10/14 06:17:47;;;;;;;2.90;2.60;;;;;;;16.99;74.04;97331.59;5093621;28;20448;-80
2023/10/14 06:20:16;;;;;;;3.20;2.33;;;;;;;17.22;73.60;97342.16;5079470;28;20460;-79
2023/10/14 06:22:44;;;;;;;4.47;2.83;;;;;;;17.26;73.44;97337.81;5094177;28;20491;-80
2023/10/14 06:25:15;;;;;;;3.50;2.60;;;;;;;17.56;71.98;97341.84;5096951;28;20578;-78
2023/10/14 06:27:45;;;;;;;3.77;2.90;;;;;;;17.61;71.18;97341.91;5091223;28;20472;-78
2023/10/14 06:30:21;;;;;;;3.43;2.40;;;;;;;17.67;70.63;97349.09;5094743;28;20453;-76
2023/10/14 06:32:52;;;;;;;6.53;2.73;;;;;;;17.66;71.17;97352.91;5093539;28;20535;-77
2023/10/14 06:35:20;;;;;;;4.60;2.60;;;;;;;17.62;71.28;97357.22;5096079;28;20448;-77
2023/10/14 06:37:48;;;;;;;3.10;2.33;;;;;;;17.68;70.71;97358.94;5090044;28;20872;-67
2023/10/14 06:40:18;;;;;;;3.03;2.33;;;;;;;17.75;70.90;97368.56;5090823;28;20445;-78
2023/10/14 06:42:48;;;;;;;3.40;2.30;;;;;;;17.72;70.46;97362.81;5094257;28;20460;-77
2023/10/14 06:45:18;;;;;;;2.93;2.43;;;;;;;17.75;70.19;97360.38;5091888;28;20485;-79
2023/10/14 06:47:49;;;;;;;3.40;2.33;;;;;;;17.79;70.06;97363.41;5096703;28;20457;-77
2023/10/14 06:50:20;;;;;;;3.27;2.13;;;;;;;17.88;69.34;97369.19;5096816;28;20533;-77
2023/10/14 06:52:48;;;;;;;2.77;1.90;;;;;;;17.99;68.67;97368.16;5096851;28;20452;-77
2023/10/14 06:55:21;;;;;;;2.83;2.10;;;;;;;17.87;69.10;97373.03;5096936;28;20464;-74
2023/10/14 06:57:53;;;;;;;3.30;2.40;;;;;;;17.78;69.60;97367.22;5089777;28;20462;-75
2023/10/14 07:00:29;;;;;;;2.03;1.80;;;;;;;17.78;69.60;97376.25;5098341;28;20476;-75
2023/10/14 07:03:00;;;;;;;2.20;1.90;;;;;;;17.98;68.66;97378.28;5092746;28;20886;-74
2023/10/14 07:05:29;;;;;;;2.10;1.90;;;;;;;17.97;68.62;97378.53;5095259;28;20516;-74
2023/10/14 07:07:58;;;;;;;2.70;1.87;;;;;;;18.05;68.00;97384.34;5103587;28;20479;-75
2023/10/14 07:10:32;;;;;;;2.23;1.87;;;;;;;18.03;67.90;97389.28;5103718;28;20524;-74
2023/10/14 07:13:00;;;;;;;3.10;2.00;;;;;;;18.25;67.32;97396.47;5096569;28;20460;-74
2023/10/14 07:15:29;;;;;;;3.57;1.80;;;;;;;18.21;67.45;97400.84;5088023;28;20483;-77
2023/10/14 07:17:56;;;;;;;2.80;1.70;;;;;;;18.01;67.59;97398.84;5091033;28;20469;-77
2023/10/14 07:20:23;;;;;;;2.43;2.00;;;;;;;18.05;67.70;97399.97;5095449;28;20453;-77
2023/10/14 07:22:50;;;;;;;3.40;2.00;;;;;;;18.18;66.93;97404.16;5095511;28;20998;-77
2023/10/14 07:25:19;;;;;;;2.80;1.53;;;;;;;18.21;66.92;97395.38;5087971;28;21090;-77
2023/10/14 07:27:51;;;;;;;3.00;1.40;;;;;;;18.21;66.79;97403.59;5091280;28;20456;-77
2023/10/14 07:30:19;;;;;;;2.80;1.97;;;;;;;18.30;66.65;97393.78;5096034;28;20449;-75
2023/10/14 07:32:47;;;;;;;2.00;1.60;;;;;;;18.46;66.05;97396.31;5101995;28;20452;-78
2023/10/14 07:35:15;;;;;;;3.10;1.87;;;;;;;18.51;65.32;97376.34;5087691;28;20461;-76
2023/10/14 07:37:44;;;;;;;2.73;1.70;;;;;;;18.54;65.28;97392.22;5097159;28;20472;-76
2023/10/14 07:40:22;;;;;;;2.13;1.50;;;;;;;19.31;62.56;97387.72;5095348;28;20459;-76
2023/10/14 07:42:54;;;;;;;2.40;1.60;;;;;;;19.57;61.56;97399.53;5085097;28;20463;-76
2023/10/14 07:45:23;;;;;;;2.57;1.90;;;;;;;19.82;60.79;97390.47;5088125;28;20970;-77
2023/10/14 07:47:49;;;;;;;2.30;1.37;;;;;;;20.31;59.42;97390.59;5106495;28;20472;-76
2023/10/14 07:50:16;;;;;;;3.10;1.67;;;;;;;20.17;59.50;97382.13;5103653;28;20925;-77
2023/10/14 07:52:45;;;;;;;1.57;1.27;;;;;;;20.26;59.47;97385.94;5097436;28;20502;-77
2023/10/14 07:55:15;;;;;;;4.00;1.87;;;;;;;20.56;58.72;97382.28;5088622;28;20556;-77
2023/10/14 07:57:46;;;;;;;2.60;1.80;;;;;;;20.81;58.11;97378.56;5100674;28;20464;-77
2023/10/14 08:00:15;;;;;;;3.37;1.50;;;;;;;21.27;56.34;97384.59;5100235;28;20505;-77
2023/10/14 08:02:43;;;;;;;2.23;1.57;;;;;;;20.95;56.96;97398.00;5101110;28;20590;-77
2023/10/14 08:05:11;;;;;;;3.17;1.33;;;;;;;19.95;60.23;97407.19;5094245;28;21091;-77
2023/10/14 08:07:41;;;;;;;3.13;1.60;;;;;;;19.65;61.80;97412.72;5093742;28;20816;-77
2023/10/14 08:10:21;;;;;;;2.10;1.50;;;;;;;19.59;62.65;97409.16;5101080;28;20456;-77
2023/10/14 08:12:52;;;;;;;3.97;1.70;;;;;;;19.41;63.93;97417.94;5105690;28;20735;-77
2023/10/14 08:15:20;;;;;;;2.07;1.47;;;;;;;19.82;62.45;97423.44;5104756;28;20451;-77
2023/10/14 08:17:49;;;;;;;3.13;1.77;;;;;;;20.44;60.63;97420.28;5093138;28;20645;-76
2023/10/14 08:20:18;;;;;;;1.53;1.43;;;;;;;20.98;58.83;97416.72;5105348;28;20462;-77
2023/10/14 08:22:47;;;;;;;2.13;1.27;;;;;;;20.26;61.22;97418.09;5102447;28;20452;-77
2023/10/14 08:25:16;;;;;;;2.10;1.43;;;;;;;20.48;60.24;97421.34;5098846;28;20534;-77
2023/10/14 08:27:43;;;;;;;2.20;2.00;;;;;;;20.35;61.42;97428.25;5092360;28;20484;-77
2023/10/14 08:30:16;;;;;;;5.57;1.70;;;;;;;20.91;60.14;97447.28;5101414;28;20459;-77
2023/10/14 08:32:46;;;;;;;2.20;1.70;;;;;;;21.36;57.97;97432.44;5098456;28;20903;-77
2023/10/14 08:35:17;;;;;;;4.37;2.10;;;;;;;20.59;60.34;97439.44;5105411;28;20444;-77
2023/10/14 08:37:48;;;;;;;1.83;1.33;;;;;;;20.47;60.79;97438.94;5104419;28;21191;-77
2023/10/14 08:40:20;;;;;;;3.60;1.87;;;;;;;19.71;63.87;97436.34;5114056;28;20533;-77
2023/10/14 08:42:50;;;;;;;5.57;1.80;;;;;;;19.86;64.00;97433.56;5106099;28;20452;-77
2023/10/14 08:45:19;;;;;;;3.60;1.93;;;;;;;19.72;63.81;97440.72;5100258;28;20569;-77
2023/10/14 08:47:51;;;;;;;1.73;1.60;;;;;;;19.80;63.74;97434.69;5099282;28;20990;-76
2023/10/14 08:50:21;;;;;;;3.60;1.70;;;;;;;19.74;64.04;97436.63;5106941;28;20455;-77
2023/10/14 08:52:50;;;;;;;2.50;1.50;;;;;;;19.39;65.20;97442.91;5099434;28;20452;-77
2023/10/14 08:55:19;;;;;;;1.93;1.80;;;;;;;19.32;65.77;97450.56;5096285;28;20536;-77
2023/10/14 08:57:46;;;;;;;2.77;1.67;;;;;;;19.03;67.84;97458.47;5103909;28;20483;-77
2023/10/14 09:00:19;;;;;;;1.50;1.37;;;;;;;18.42;72.63;97479.31;5099128;28;20613;-79
2023/10/14 09:02:49;;;;;;;1.83;1.10;;;;;;;17.65;76.77;97485.38;5097294;28;20448;-79
2023/10/14 09:05:17;;;;;;;1.23;1.13;;;;;;;17.20;79.05;97485.75;5092867;28;20488;-78
2023/10/14 09:07:48;;;;;;;1.63;0.90;;;;;;;16.66;81.42;97535.69;5093843;28;20556;-78
2023/10/14 09:10:18;;;;;;;0.83;0.80;;;;;;;16.32;82.84;97529.47;5096989;28;20461;-77
2023/10/14 09:12:58;;;;;;;1.30;1.00;;;;;;;16.02;85.62;97535.28;5089325;28;20454;-77
2023/10/14 09:15:26;;;;;;;1.40;1.10;;;;;;;15.79;86.67;97538.19;5102183;28;20472;-77
2023/10/14 09:17:56;;;;;;;1.70;1.17;;;;;;;15.73;87.10;97533.72;5100827;28;20549;-77
2023/10/14 09:20:32;;;;;;;1.17;1.07;;;;;;;15.61;87.86;97533.78;5106418;28;20449;-82
2023/10/14 09:23:14;;;;;;;1.40;1.30;;;;;;;15.40;88.59;97540.78;5104517;28;20456;-78
2023/10/14 09:25:42;;;;;;;1.30;1.20;;;;;;;15.36;88.30;97525.97;5102360;28;20577;-77
2023/10/14 09:28:09;;;;;;;2.10;1.40;;;;;;;15.50;88.59;97531.13;5107160;28;20610;-78
2023/10/14 09:30:37;;;;;;;3.33;1.20;;;;;;;15.47;88.58;97537.91;5102207;28;20503;-77
2023/10/14 09:33:06;;;;;;;1.70;1.40;;;;;;;15.43;88.89;97536.72;5107621;28;20453;-77
2023/10/14 09:35:33;;;;;;;2.23;1.30;;;;;;;15.34;89.24;97543.66;5091650;28;20453;-77
2023/10/14 09:38:00;;;;;;;1.70;1.60;;;;;;;15.25;89.80;97548.69;5104534;28;20470;-78
2023/10/14 09:40:27;;;;;;;2.00;1.60;;;;;;;15.26;90.15;97542.16;5106740;28;20812;-78
2023/10/14 09:42:54;;;;;;;1.67;1.57;;;;;;;15.37;89.54;97540.44;5101943;28;20464;-77
2023/10/14 09:45:22;;;;;;;1.77;1.60;;;;;;;15.46;88.85;97545.25;5104980;28;20472;-77
2023/10/14 09:47:51;;;;;;;1.63;1.53;;;;;;;15.65;88.75;97551.34;5104141;28;20512;-78
2023/10/14 09:50:21;;;;;;;2.10;1.77;;;;;;;15.83;87.78;97539.38;5106579;28;20503;-77
2023/10/14 09:52:48;;;;;;;2.30;1.83;;;;;;;15.91;87.50;97544.41;5097947;28;20808;-78
2023/10/14 09:55:15;;;;;;;1.70;1.60;;;;;;;15.75;88.44;97551.50;5100608;28;20452;-78
2023/10/14 09:57:44;;;;;;;1.93;1.83;;;;;;;15.88;87.42;97542.19;5098180;28;21383;-78
2023/10/14 10:00:12;;;;;;;1.60;1.50;;;;;;;16.05;87.01;97540.25;5106411;28;20471;-78
2023/10/14 10:02:43;;;;;;;1.70;1.60;;;;;;;16.13;86.70;97539.03;5101700;28;20451;-78
2023/10/14 10:05:12;;;;;;;1.87;1.60;;;;;;;16.29;85.46;97535.41;5105976;28;20484;-78
2023/10/14 10:07:54;;;;;;;1.67;1.37;;;;;;;16.31;84.63;97543.38;5107089;28;20498;-78
2023/10/14 10:10:25;;;;;;;1.57;1.47;;;;;;;16.28;85.37;97552.06;5104148;28;20491;-77
2023/10/14 10:12:55;;;;;;;1.63;1.33;;;;;;;16.37;83.63;97542.38;5097862;28;20463;-78
2023/10/14 10:15:24;;;;;;;1.60;1.50;;;;;;;16.40;83.99;97537.22;5098787;28;20548;-78
2023/10/14 10:17:56;;;;;;;1.60;1.50;;;;;;;16.72;82.96;97545.63;5098196;28;20564;-78
2023/10/14 10:20:31;;;;;;;1.93;1.27;;;;;;;16.80;81.05;97541.63;5096152;28;20461;-78
2023/10/14 10:23:01;;;;;;;1.60;1.50;;;;;;;17.05;80.75;97538.38;5100921;28;20472;-78
2023/10/14 10:25:49;;;;;;;1.57;1.30;;;;;;;16.91;79.45;97545.28;5104497;28;20622;-78
2023/10/14 10:28:41;;;;;;;1.17;1.07;;;;;;;17.16;77.67;97544.78;5108879;28;20473;-78
2023/10/14 10:31:10;;;;;;;1.17;1.07;;;;;;;17.13;76.58;97546.13;5102166;28;21014;-78
2023/10/14 10:34:02;;;;;;;1.40;1.10;;;;;;;17.27;77.17;97547.34;5093040;28;20460;-77
2023/10/14 10:36:30;;;;;;;1.20;1.10;;;;;;;17.22;78.29;97555.50;5074212;28;20506;-78
2023/10/14 10:39:15;;;;;;;1.50;1.40;;;;;;;16.96;78.43;97534.41;5088181;28;22157;-78
2023/10/14 10:41:43;;;;;;;1.80;1.00;;;;;;;16.76;78.53;97535.84;5094926;28;20497;-79
2023/10/14 10:44:11;;;;;;;1.00;0.97;;;;;;;16.71;79.96;97548.59;5100517;28;20586;-79
2023/10/14 10:46:41;;;;;;;1.40;1.30;;;;;;;16.52;79.57;97539.03;5084752;28;20496;-78
2023/10/14 10:49:10;;;;;;;1.20;1.10;;;;;;;16.66;79.85;97551.25;5091871;28;21050;-78
2023/10/14 10:51:40;;;;;;;1.63;1.40;;;;;;;16.84;79.65;97559.16;5094740;28;20459;-78
2023/10/14 10:54:10;;;;;;;1.23;1.13;;;;;;;16.66;78.54;97552.09;5090105;28;20450;-78
2023/10/14 10:56:37;;;;;;;1.60;1.50;;;;;;;16.59;79.34;97548.69;5106604;28;20455;-78
2023/10/14 10:59:05;;;;;;;1.30;1.20;;;;;;;16.45;79.97;97552.88;5099134;28;20479;-78
2023/10/14 11:01:32;;;;;;;1.00;1.00;;;;;;;16.28;80.66;97555.63;5099571;28;20460;-77
2023/10/14 11:04:01;;;;;;;1.30;1.20;;;;;;;16.26;80.65;97557.75;5103081;28;20548;-78
2023/10/14 11:06:29;;;;;;;1.20;1.10;;;;;;;16.15;82.30;97552.44;5107572;28;21018;-78
2023/10/14 11:08:58;;;;;;;1.53;1.37;;;;;;;16.07;81.96;97550.94;5104994;28;20480;-77
2023/10/14 11:11:31;;;;;;;1.27;1.17;;;;;;;15.75;82.65;97561.59;5102008;28;20587;-77
2023/10/14 11:14:00;;;;;;;2.90;1.00;;;;;;;15.60;82.50;97564.88;5102990;28;20793;-78
2023/10/14 11:16:28;;;;;;;1.70;1.30;;;;;;;15.69;83.87;97557.13;5097530;28;21082;-78
2023/10/14 11:18:55;;;;;;;1.63;1.30;;;;;;;15.65;84.39;97555.97;5091173;28;20626;-79
2023/10/14 11:21:22;;;;;;;2.60;1.43;;;;;;;15.40;84.62;97562.59;5099804;28;20943;-79
2023/10/14 11:23:52;;;;;;;1.43;1.33;;;;;;;15.59;85.13;97568.72;5094678;28;20514;-79
2023/10/14 11:26:20;;;;;;;2.60;1.20;;;;;;;15.48;85.60;97566.81;5101755;28;20483;-78
2023/10/14 11:28:50;;;;;;;2.20;1.40;;;;;;;15.37;86.42;97571.25;5103663;28;20520;-78
2023/10/14 11:31:20;;;;;;;2.50;1.10;;;;;;;15.09;86.05;97568.53;5089756;28;20458;-79
2023/10/14 11:33:47;;;;;;;1.63;1.27;;;;;;;15.04;87.15;97552.06;5098486;28;20452;-78
2023/10/14 11:36:17;;;;;;;1.30;1.10;;;;;;;14.95;87.51;97556.25;5103138;28;20460;-79
2023/10/14 11:38:46;;;;;;;2.03;1.20;;;;;;;14.99;86.64;97554.69;5086678;28;20476;-77
2023/10/14 11:41:15;;;;;;;1.40;1.30;;;;;;;14.95;87.59;97567.97;5107828;28;20445;-77
2023/10/14 11:43:45;;;;;;;1.20;1.10;;;;;;;14.85;87.15;97565.06;5110718;28;20442;-78
2023/10/14 11:46:13;;;;;;;1.37;1.27;;;;;;;14.83;87.64;97575.38;5098982;28;20515;-77
2023/10/14 11:48:45;;;;;;;1.47;1.37;;;;;;;14.84;87.49;97566.13;5098207;28;20835;-77
2023/10/14 11:51:12;;;;;;;1.40;1.30;;;;;;;14.73;88.23;97564.25;5095247;28;20462;-77
2023/10/14 11:53:44;;;;;;;2.23;1.67;;;;;;;14.63;89.15;97570.31;5100470;28;20523;-77
2023/10/14 11:56:13;;;;;;;1.77;1.67;;;;;;;14.58;88.87;97572.13;5089517;28;20981;-78
2023/10/14 11:58:41;;;;;;;1.33;1.23;;;;;;;14.44;87.53;97566.06;5095369;28;20477;-77